Time;durP1;ratioP1;P1;durP2;ratioP2;P2;SDS_P1;SDS_P2;PMS_P1;PMS_P2;Temp;Humidity;BMP_temperature;BMP_pressure;BME280_temperature;BME280_humidity;BME280_pressure;Samples;Min_cycle;Max_cycle;Signal;HPM_P1;HPM_P2
2022/11/04 00:02:04;;;;;;;2.90;1.70;;;;;;;11.14;100.00;99762.84;6324100;28;20272;-72
2022/11/04 00:05:06;;;;;;;1.88;1.35;;;;;;;11.14;100.00;99765.47;6325859;28;20055;-72
2022/11/04 00:08:24;;;;;;;1.92;1.40;;;;;;;11.08;100.00;99755.38;6325838;28;20109;-72
2022/11/04 00:14:46;;;;;;;3.35;1.48;;;;;;;11.04;100.00;99753.94;6350494;28;20497;-71
2022/11/04 00:17:47;;;;;;;2.75;1.42;;;;;;;11.04;100.00;99730.28;6351003;28;20048;-72
2022/11/04 00:30:48;;;;;;;2.47;1.75;;;;;;;10.97;100.00;99726.41;6350390;28;20464;-72
2022/11/04 00:33:50;;;;;;;3.38;1.63;;;;;;;10.98;100.00;99735.97;6350311;28;20047;-73
2022/11/04 00:36:52;;;;;;;2.65;1.65;;;;;;;10.96;100.00;99736.06;6350410;28;20044;-72
2022/11/04 00:39:54;;;;;;;3.22;1.70;;;;;;;10.95;100.00;99734.41;6349976;28;20044;-72
2022/11/04 00:42:56;;;;;;;6.10;2.08;;;;;;;10.96;100.00;99743.97;6350420;28;20052;-73
2022/11/04 00:45:57;;;;;;;2.63;1.90;;;;;;;10.99;100.00;99751.66;6350022;28;20055;-72
2022/11/04 00:48:59;;;;;;;2.33;1.83;;;;;;;11.01;100.00;99748.91;6350431;28;20066;-72
2022/11/04 00:52:00;;;;;;;2.97;1.67;;;;;;;11.01;100.00;99757.63;6349970;28;20426;-72
2022/11/04 00:55:04;;;;;;;3.67;1.70;;;;;;;11.02;100.00;99753.19;6349758;28;20130;-71
2022/11/04 00:58:05;;;;;;;1.83;1.27;;;;;;;11.00;100.00;99748.06;6349952;28;20144;-72
2022/11/04 01:01:08;;;;;;;2.92;1.70;;;;;;;11.03;100.00;99747.81;6349755;28;20043;-72
2022/11/04 01:04:10;;;;;;;2.53;1.48;;;;;;;11.04;100.00;99748.69;6349585;27;20043;-72
2022/11/04 01:07:11;;;;;;;1.67;1.25;;;;;;;11.04;100.00;99746.06;6349943;28;20062;-72
2022/11/04 01:10:14;;;;;;;2.38;1.80;;;;;;;11.07;100.00;99730.03;6349648;28;20062;-72
2022/11/04 01:13:15;;;;;;;2.20;1.33;;;;;;;11.05;100.00;99731.97;6349167;28;20521;-73
2022/11/04 01:16:17;;;;;;;2.88;1.40;;;;;;;11.07;100.00;99737.94;6349275;28;20048;-71
2022/11/04 01:19:19;;;;;;;5.13;1.75;;;;;;;11.07;100.00;99737.94;6349522;28;20494;-72
2022/11/04 01:22:20;;;;;;;3.17;1.48;;;;;;;11.06;100.00;99734.47;6349163;28;20049;-72
2022/11/04 01:25:23;;;;;;;1.63;1.23;;;;;;;11.07;100.00;99749.28;6348996;28;20052;-72
2022/11/04 01:28:24;;;;;;;2.45;1.50;;;;;;;11.09;100.00;99764.97;6349498;28;20058;-72
2022/11/04 01:31:28;;;;;;;4.68;1.80;;;;;;;11.09;100.00;99746.56;6349110;28;20050;-73
2022/11/04 01:34:29;;;;;;;1.52;1.40;;;;;;;11.08;100.00;99736.97;6349217;28;20044;-71
2022/11/04 01:37:31;;;;;;;2.63;1.50;;;;;;;11.05;100.00;99722.28;6349220;27;20054;-72
2022/11/04 01:40:37;;;;;;;1.75;1.50;;;;;;;11.06;100.00;99729.22;6348533;28;20414;-72
2022/11/04 01:43:48;;;;;;;2.83;1.52;;;;;;;11.05;100.00;99737.22;6349151;28;20059;-72
2022/11/04 01:46:52;;;;;;;2.55;1.50;;;;;;;11.08;100.00;99736.97;6348936;28;20039;-72
2022/11/04 01:49:57;;;;;;;2.88;1.67;;;;;;;11.05;100.00;99747.72;6348530;28;20503;-72
2022/11/04 01:53:03;;;;;;;3.22;1.77;;;;;;;11.08;100.00;99745.72;6348917;28;20043;-72
2022/11/04 01:56:10;;;;;;;2.35;1.65;;;;;;;11.05;100.00;99745.09;6348322;28;20137;-72
2022/11/04 01:59:18;;;;;;;5.20;1.80;;;;;;;11.04;100.00;99748.69;6348669;28;20051;-72
2022/11/04 02:02:19;;;;;;;2.95;1.70;;;;;;;11.08;100.00;99765.91;6348251;28;20059;-72
2022/11/04 02:05:22;;;;;;;1.83;1.30;;;;;;;11.08;100.00;99774.66;6348110;28;20054;-72
2022/11/04 02:08:24;;;;;;;2.13;1.65;;;;;;;11.10;100.00;99778.00;6348137;28;20499;-72
2022/11/04 02:14:48;;;;;;;2.50;1.42;;;;;;;11.13;100.00;99774.31;6347760;28;20051;-72
2022/11/04 02:18:05;;;;;;;2.45;1.50;;;;;;;11.13;100.00;99764.66;6348093;28;20047;-72
2022/11/04 02:21:40;;;;;;;2.70;1.50;;;;;;;11.11;100.00;99748.13;6347619;28;20055;-72
2022/11/04 02:25:14;;;;;;;2.33;2.00;;;;;;;11.06;100.00;99749.41;6346797;28;20047;-72
2022/11/04 02:28:37;;;;;;;8.30;1.75;;;;;;;11.06;100.00;99750.25;6347818;28;20399;-72
2022/11/04 02:31:46;;;;;;;3.15;1.90;;;;;;;11.07;100.00;99770.31;6347491;28;20040;-72
2022/11/04 02:34:54;;;;;;;;;;;;;;;11.12;100.00;99772.63;6348136;28;20058;-71
2022/11/04 02:38:04;;;;;;;3.60;1.40;;;;;;;11.12;100.00;99775.25;6347411;28;19920;-72
2022/11/04 02:41:14;;;;;;;3.55;1.73;;;;;;;11.07;100.00;99791.34;6347494;28;20055;-71
2022/11/04 02:44:21;;;;;;;2.95;1.73;;;;;;;11.12;100.00;99814.69;6347045;28;20047;-72
2022/11/04 02:47:28;;;;;;;2.10;1.17;;;;;;;11.17;100.00;99823.97;6347479;28;20054;-71
2022/11/04 02:50:34;;;;;;;2.03;1.23;;;;;;;11.20;100.00;99824.69;6347153;28;20387;-72
2022/11/04 02:53:42;;;;;;;1.15;0.95;;;;;;;11.16;100.00;99826.69;6347621;28;20044;-72
2022/11/04 02:56:48;;;;;;;2.92;1.23;;;;;;;11.19;100.00;99831.72;6347347;28;20532;-71
2022/11/04 02:59:55;;;;;;;0.70;0.70;;;;;;;11.15;100.00;99819.75;6346955;28;20047;-71
2022/11/04 03:03:02;;;;;;;1.33;0.80;;;;;;;11.21;100.00;99821.94;6347410;28;20048;-71
2022/11/04 03:06:06;;;;;;;1.10;0.70;;;;;;;11.15;100.00;99812.69;6346800;28;20048;-71
2022/11/04 03:09:10;;;;;;;1.05;0.65;;;;;;;11.11;100.00;99813.00;6347039;28;20499;-72
2022/11/04 03:12:36;;;;;;;0.40;0.40;;;;;;;11.05;100.00;99816.94;6346735;28;20421;-71
2022/11/04 03:15:42;;;;;;;0.50;0.50;;;;;;;11.02;100.00;99813.66;6346636;28;20054;-71
2022/11/04 03:18:55;;;;;;;1.40;0.70;;;;;;;11.04;100.00;99820.50;6346865;28;20055;-71
2022/11/04 03:22:02;;;;;;;0.80;0.57;;;;;;;10.98;100.00;99833.22;6346252;28;20047;-71
2022/11/04 03:25:05;;;;;;;0.60;0.60;;;;;;;10.90;100.00;99839.00;6346482;28;20055;-72
2022/11/04 03:28:25;;;;;;;1.70;0.73;;;;;;;10.91;100.00;99852.06;6346922;28;20059;-71
2022/11/04 03:31:32;;;;;;;0.98;0.63;;;;;;;10.90;100.00;99860.03;6346548;28;20040;-71
2022/11/04 03:34:37;;;;;;;0.63;0.50;;;;;;;10.89;100.00;99853.94;6346163;28;20417;-71
2022/11/04 03:37:38;;;;;;;2.25;0.90;;;;;;;10.85;100.00;99849.00;6346513;28;20044;-71
2022/11/04 03:40:40;;;;;;;1.17;0.60;;;;;;;10.81;100.00;99874.69;6346186;28;20050;-71
2022/11/04 03:43:42;;;;;;;0.82;0.65;;;;;;;10.81;100.00;99872.06;6346175;28;20039;-72
2022/11/04 03:46:44;;;;;;;1.05;0.80;;;;;;;10.82;100.00;99886.03;6346676;28;20571;-71
2022/11/04 03:49:48;;;;;;;1.75;0.73;;;;;;;10.80;100.00;99890.53;6346237;28;20040;-71
2022/11/04 03:52:49;;;;;;;2.88;0.88;;;;;;;10.76;100.00;99907.44;6346371;28;20047;-71
2022/11/04 03:56:13;;;;;;;1.30;1.00;;;;;;;10.79;100.00;99907.25;6346162;28;20058;-71
2022/11/04 03:59:30;;;;;;;1.90;0.88;;;;;;;10.77;100.00;99910.00;6346864;28;20048;-71
2022/11/04 04:02:43;;;;;;;0.88;0.80;;;;;;;10.77;100.00;99903.91;6345889;28;20043;-71
2022/11/04 04:05:52;;;;;;;2.47;1.48;;;;;;;10.75;100.00;99918.91;6346115;28;20043;-71
2022/11/04 04:08:56;;;;;;;;;;;;;;;10.72;100.00;99908.59;6346585;28;20050;-71
2022/11/04 04:12:03;;;;;;;3.40;1.48;;;;;;;10.67;100.00;99911.53;6346089;28;19931;-72
2022/11/04 04:15:13;;;;;;;2.10;1.30;;;;;;;10.66;100.00;99929.09;6345918;28;20082;-72
2022/11/04 04:18:18;;;;;;;2.00;1.30;;;;;;;10.62;100.00;99930.22;6346220;28;20059;-71
2022/11/04 04:21:26;;;;;;;3.85;1.55;;;;;;;10.61;100.00;99941.69;6345712;28;20066;-72
2022/11/04 04:27:52;;;;;;;1.52;1.33;;;;;;;10.56;100.00;99945.56;6346051;28;20051;-71
2022/11/04 04:30:54;;;;;;;2.25;1.60;;;;;;;10.58;100.00;99935.78;6345669;28;20545;-71
2022/11/04 04:33:56;;;;;;;2.25;1.52;;;;;;;10.50;100.00;99933.69;6345621;28;20044;-71
2022/11/04 04:37:02;;;;;;;2.60;1.52;;;;;;;10.46;100.00;99932.22;6345716;28;20399;-71
2022/11/04 04:46:43;;;;;;;8.07;1.77;;;;;;;10.44;100.00;99960.34;6323258;28;20051;-71
2022/11/04 04:49:49;;;;;;;3.10;2.17;;;;;;;10.40;100.00;99967.59;6350504;28;20100;-71
2022/11/04 04:52:54;;;;;;;2.55;1.73;;;;;;;10.32;100.00;99971.66;6350367;28;20043;-72
2022/11/04 04:55:56;;;;;;;3.33;1.92;;;;;;;10.32;100.00;99977.75;6350249;28;20051;-71
2022/11/04 04:58:57;;;;;;;2.60;1.55;;;;;;;10.28;100.00;99976.28;6350099;28;20058;-71
2022/11/04 05:01:58;;;;;;;1.77;1.33;;;;;;;10.25;100.00;99983.50;6349904;27;20043;-72
2022/11/04 05:05:00;;;;;;;2.30;1.98;;;;;;;10.28;100.00;99993.81;6349899;28;20482;-71
2022/11/04 05:08:08;;;;;;;2.75;2.10;;;;;;;10.29;100.00;99987.63;6350139;28;20047;-71
2022/11/04 05:11:09;;;;;;;8.07;4.35;;;;;;;10.27;100.00;99995.59;6349451;28;20521;-71
2022/11/04 05:14:11;;;;;;;2.10;1.70;;;;;;;10.31;100.00;99998.84;6349575;27;20047;-71
2022/11/04 05:17:12;;;;;;;2.42;2.03;;;;;;;10.29;100.00;99998.97;6349806;28;20047;-71
2022/11/04 05:20:14;;;;;;;2.58;1.70;;;;;;;10.29;100.00;100001.59;6349291;28;20051;-71
2022/11/04 05:23:17;;;;;;;2.78;1.80;;;;;;;10.35;100.00;100003.81;6349768;28;20047;-71
2022/11/04 05:26:19;;;;;;;1.60;1.50;;;;;;;10.35;100.00;99995.94;6349061;28;20054;-71
2022/11/04 05:29:20;;;;;;;1.85;1.35;;;;;;;10.39;100.00;100005.31;6349697;28;20055;-71
2022/11/04 05:32:22;;;;;;;2.67;1.92;;;;;;;10.37;100.00;100019.50;6349037;28;20047;-71
2022/11/04 05:35:23;;;;;;;2.45;1.90;;;;;;;10.35;100.00;100030.06;6349121;28;20157;-71
2022/11/04 05:38:26;;;;;;;2.55;1.92;;;;;;;10.39;100.00;100028.94;6348463;22;20049;-70
2022/11/04 05:41:28;;;;;;;1.70;1.52;;;;;;;10.38;100.00;100039.56;6255961;28;20053;-69
2022/11/04 05:44:29;;;;;;;3.70;2.20;;;;;;;10.37;100.00;100038.72;6273520;28;20060;-70
2022/11/04 05:47:30;;;;;;;3.33;2.00;;;;;;;10.35;100.00;100037.09;6255394;28;20057;-69
2022/11/04 05:50:33;;;;;;;3.45;1.95;;;;;;;10.37;100.00;100048.38;6248697;28;20067;-69
2022/11/04 05:53:36;;;;;;;2.17;1.80;;;;;;;10.41;100.00;100052.50;6248822;28;20049;-69
2022/11/04 05:56:37;;;;;;;3.40;2.00;;;;;;;10.40;100.00;100049.03;6248665;28;20494;-69
2022/11/04 05:59:39;;;;;;;2.67;2.03;;;;;;;10.41;100.00;100040.22;6248571;28;20056;-69
2022/11/04 06:02:40;;;;;;;2.83;2.05;;;;;;;10.38;100.00;100050.91;6248646;28;20432;-68
2022/11/04 06:05:42;;;;;;;3.38;2.00;;;;;;;10.40;100.00;100062.16;6248250;28;20056;-70
2022/11/04 06:08:44;;;;;;;2.83;1.85;;;;;;;10.39;100.00;100065.72;6248446;28;20072;-69
2022/11/04 06:11:46;;;;;;;2.97;2.40;;;;;;;10.34;100.00;100070.41;6248164;28;20053;-70
2022/11/04 06:14:48;;;;;;;2.97;2.20;;;;;;;10.36;100.00;100072.97;6247934;28;20049;-69
2022/11/04 06:17:49;;;;;;;5.95;2.28;;;;;;;10.38;100.00;100073.69;6248417;28;20051;-69
2022/11/04 06:21:05;;;;;;;2.65;2.28;;;;;;;10.37;100.00;100066.75;6247886;28;20195;-69
2022/11/04 06:24:08;;;;;;;4.55;2.25;;;;;;;10.36;100.00;100065.09;6247792;28;20490;-69
2022/11/04 06:27:10;;;;;;;4.70;2.50;;;;;;;10.33;100.00;100052.13;6247979;28;20057;-69
2022/11/04 06:30:12;;;;;;;4.10;2.75;;;;;;;10.32;100.00;100060.97;6247577;28;20401;-69
2022/11/04 06:33:14;;;;;;;3.05;2.28;;;;;;;10.34;100.00;100059.06;6247771;28;20410;-70
2022/11/04 06:36:16;;;;;;;5.60;2.53;;;;;;;10.33;100.00;100068.75;6247543;28;20057;-69
2022/11/04 06:39:19;;;;;;;5.40;3.67;;;;;;;10.32;100.00;100085.44;6253920;28;20551;-67
2022/11/04 06:42:20;;;;;;;4.10;2.83;;;;;;;10.37;100.00;100093.03;6271120;28;20527;-69
2022/11/04 06:45:22;;;;;;;3.58;2.00;;;;;;;10.35;100.00;100121.16;6271996;28;20053;-68
2022/11/04 06:48:23;;;;;;;5.57;3.17;;;;;;;10.35;100.00;100108.88;6271832;28;20053;-69
2022/11/04 06:51:25;;;;;;;3.53;2.63;;;;;;;10.35;100.00;100118.53;6271996;28;20053;-69
2022/11/04 06:54:28;;;;;;;4.32;2.72;;;;;;;10.37;100.00;100135.06;6271550;28;20416;-69
2022/11/04 06:57:30;;;;;;;5.20;3.10;;;;;;;10.36;100.00;100128.97;6272049;28;20057;-69
2022/11/04 07:00:31;;;;;;;3.58;3.03;;;;;;;10.39;100.00;100127.91;6271446;28;20048;-69
2022/11/04 07:03:33;;;;;;;3.97;3.20;;;;;;;10.35;100.00;100144.78;6271224;28;20505;-69
2022/11/04 07:06:34;;;;;;;3.75;2.75;;;;;;;10.35;100.00;100144.78;6271467;28;20060;-69
2022/11/04 07:09:37;;;;;;;3.63;2.42;;;;;;;10.43;100.00;100144.31;6271360;28;20049;-69
2022/11/04 07:12:38;;;;;;;6.90;3.10;;;;;;;10.36;100.00;100155.22;6271386;28;20049;-69
2022/11/04 07:15:40;;;;;;;3.63;2.72;;;;;;;10.39;100.00;100159.44;6270196;28;20049;-69
2022/11/04 07:18:41;;;;;;;4.55;3.10;;;;;;;10.33;100.00;100165.91;6270049;28;20159;-69
2022/11/04 07:21:43;;;;;;;4.63;3.40;;;;;;;10.35;100.00;100161.41;6270217;28;20049;-68
2022/11/04 07:24:45;;;;;;;3.92;2.88;;;;;;;10.37;100.00;100163.94;6270986;28;20420;-69
2022/11/04 07:27:47;;;;;;;4.03;3.00;;;;;;;10.34;100.00;100172.00;6271391;28;20053;-68
2022/11/04 07:30:48;;;;;;;4.57;3.03;;;;;;;10.38;100.00;100176.13;6271317;28;20056;-69
2022/11/04 07:33:50;;;;;;;6.72;2.97;;;;;;;10.40;100.00;100177.75;6270987;28;20047;-69
2022/11/04 07:36:51;;;;;;;4.90;2.85;;;;;;;10.39;100.00;100183.06;6271422;28;20139;-68
2022/11/04 07:39:54;;;;;;;4.97;3.13;;;;;;;10.37;100.00;100193.69;6271034;28;20075;-69
2022/11/04 07:42:55;;;;;;;5.70;3.05;;;;;;;10.38;100.00;100182.22;6271452;28;20059;-70
2022/11/04 07:46:02;;;;;;;4.50;2.80;;;;;;;10.38;100.00;100187.47;6270208;28;20049;-69
2022/11/04 07:49:03;;;;;;;3.15;2.10;;;;;;;10.41;100.00;100189.94;6268027;28;20045;-69
2022/11/04 07:52:05;;;;;;;5.20;2.40;;;;;;;10.39;100.00;100186.53;6270418;28;20053;-69
2022/11/04 07:55:09;;;;;;;5.20;3.25;;;;;;;10.41;100.00;100189.09;6267828;28;20048;-69
2022/11/04 07:58:10;;;;;;;4.97;2.30;;;;;;;10.43;100.00;100187.19;6270214;28;20045;-70
2022/11/04 08:01:15;;;;;;;4.00;2.35;;;;;;;10.48;100.00;100194.78;6269620;28;20053;-70
2022/11/04 08:04:16;;;;;;;4.03;2.47;;;;;;;10.53;100.00;100195.34;6270649;28;20513;-70
2022/11/04 08:07:17;;;;;;;4.35;2.72;;;;;;;10.48;100.00;100187.75;6271026;28;20053;-70
2022/11/04 08:10:20;;;;;;;4.13;2.90;;;;;;;10.45;100.00;100185.34;6270723;28;20045;-69
2022/11/04 08:13:22;;;;;;;9.25;2.90;;;;;;;10.47;100.00;100187.84;6267256;28;20045;-70
2022/11/04 08:16:25;;;;;;;5.10;3.05;;;;;;;10.45;100.00;100193.22;6269051;28;20059;-70
2022/11/04 08:19:26;;;;;;;5.05;2.90;;;;;;;10.45;100.00;100202.88;6270561;28;20041;-70
2022/11/04 08:22:28;;;;;;;3.88;2.65;;;;;;;10.48;100.00;100200.06;6272631;28;20052;-70
2022/11/04 08:25:30;;;;;;;4.85;2.78;;;;;;;10.46;100.00;100209.81;6275123;28;20059;-70
2022/11/04 08:28:32;;;;;;;4.82;2.90;;;;;;;10.41;100.00;100210.94;6275303;28;20424;-70
2022/11/04 08:31:34;;;;;;;5.82;3.17;;;;;;;10.39;100.00;100227.72;6275265;28;20060;-69
2022/11/04 08:34:36;;;;;;;6.20;3.10;;;;;;;10.35;100.00;100232.31;6274830;28;20056;-69
2022/11/04 08:37:38;;;;;;;10.45;3.20;;;;;;;10.39;100.00;100239.06;6275485;28;20045;-70
2022/11/04 08:40:41;;;;;;;5.10;2.70;;;;;;;10.45;100.00;100248.38;6274636;28;20056;-69
2022/11/04 08:43:42;;;;;;;3.70;2.38;;;;;;;10.47;100.00;100258.78;6274602;28;20499;-70
2022/11/04 08:46:46;;;;;;;2.90;2.25;;;;;;;10.56;100.00;100260.84;6274605;28;20567;-69
2022/11/04 08:49:47;;;;;;;4.28;2.42;;;;;;;10.60;100.00;100270.25;6274812;28;20492;-69
2022/11/04 08:52:48;;;;;;;6.80;3.30;;;;;;;10.60;100.00;100265.81;6275034;28;20052;-69
2022/11/04 08:55:52;;;;;;;5.63;3.30;;;;;;;10.53;100.00;100261.88;6274831;28;20049;-69
2022/11/04 08:58:53;;;;;;;7.32;3.08;;;;;;;10.58;100.00;100267.72;6274552;28;20183;-70
2022/11/04 09:01:55;;;;;;;6.40;3.00;;;;;;;10.53;100.00;100269.75;6274746;28;20045;-70
2022/11/04 09:04:56;;;;;;;5.15;2.55;;;;;;;10.54;100.00;100270.63;6274313;28;20049;-70
2022/11/04 09:07:59;;;;;;;5.47;3.15;;;;;;;10.62;100.00;100270.97;6274538;28;20496;-71
2022/11/04 09:11:06;;;;;;;5.35;2.80;;;;;;;10.62;100.00;100269.19;6274290;28;20056;-70
2022/11/04 09:14:08;;;;;;;3.10;2.60;;;;;;;10.69;100.00;100267.06;6274007;28;20045;-70
2022/11/04 09:17:10;;;;;;;4.60;2.58;;;;;;;10.71;100.00;100259.91;6274485;28;20053;-69
2022/11/04 09:20:12;;;;;;;3.38;2.30;;;;;;;10.76;100.00;100268.34;6273953;28;20053;-70
2022/11/04 09:23:13;;;;;;;6.85;2.60;;;;;;;10.77;100.00;100270.06;6274286;28;20049;-70
2022/11/04 09:26:17;;;;;;;3.72;2.70;;;;;;;10.79;100.00;100265.53;6273342;28;20515;-70
2022/11/04 09:29:18;;;;;;;8.95;3.40;;;;;;;10.85;100.00;100265.16;6274200;28;20131;-70
2022/11/04 09:32:20;;;;;;;6.25;2.60;;;;;;;10.90;100.00;100273.63;6273268;28;20053;-70
2022/11/04 09:35:21;;;;;;;5.57;2.60;;;;;;;10.90;100.00;100278.88;6273891;28;20169;-70
2022/11/04 09:38:23;;;;;;;5.45;3.00;;;;;;;10.83;100.00;100281.97;6273472;28;20059;-68
2022/11/04 09:41:46;;;;;;;4.57;2.42;;;;;;;10.81;100.00;100281.19;6273776;28;20158;-70
2022/11/04 09:44:53;;;;;;;6.10;3.28;;;;;;;10.79;100.00;100285.72;6273288;28;20049;-69
2022/11/04 09:48:00;;;;;;;5.60;2.88;;;;;;;10.84;100.00;100295.00;6273714;28;20423;-70
2022/11/04 09:51:04;;;;;;;4.15;2.67;;;;;;;10.84;100.00;100295.00;6272905;28;20535;-70
2022/11/04 09:54:14;;;;;;;4.70;2.97;;;;;;;10.86;100.00;100289.69;6273287;28;20080;-70
2022/11/04 09:57:19;;;;;;;6.22;3.10;;;;;;;10.85;100.00;100301.94;6273275;28;20566;-70
2022/11/04 10:00:22;;;;;;;4.55;2.70;;;;;;;10.83;100.00;100301.22;6273513;28;20049;-69
2022/11/04 10:03:46;;;;;;;4.90;3.38;;;;;;;10.86;100.00;100297.56;6272969;28;20080;-69
2022/11/04 10:07:06;;;;;;;4.03;2.85;;;;;;;10.92;100.00;100292.75;6273188;28;20049;-70
2022/11/04 10:10:12;;;;;;;;;;;;;;;10.90;100.00;100292.03;6273404;28;20170;-70
2022/11/04 10:13:27;;;;;;;3.67;2.20;;;;;;;10.99;100.00;100287.97;6273258;28;19921;-69
2022/11/04 10:16:45;;;;;;;3.78;2.38;;;;;;;11.07;100.00;100282.22;6271913;28;20467;-69
2022/11/04 10:20:03;;;;;;;4.68;2.53;;;;;;;11.14;100.00;100279.13;6269752;28;20056;-69
2022/11/04 10:23:19;;;;;;;4.55;2.80;;;;;;;11.20;100.00;100274.41;6272764;28;20044;-69
2022/11/04 10:26:29;;;;;;;5.00;2.28;;;;;;;11.21;100.00;100282.19;6272316;28;20053;-70
2022/11/04 10:29:37;;;;;;;3.08;2.40;;;;;;;11.18;100.00;100279.78;6272770;28;20045;-70
2022/11/04 10:32:46;;;;;;;4.20;2.53;;;;;;;11.16;100.00;100285.09;6272270;28;20045;-70
2022/11/04 10:35:51;;;;;;;4.72;2.78;;;;;;;11.20;100.00;100298.06;6272209;28;20049;-70
2022/11/04 10:38:54;;;;;;;5.28;3.08;;;;;;;11.12;100.00;100299.38;6272282;28;20099;-69
2022/11/04 10:41:57;;;;;;;4.60;2.60;;;;;;;11.26;100.00;100308.19;6271836;28;20048;-69
2022/11/04 10:44:59;;;;;;;3.90;2.35;;;;;;;11.33;100.00;100320.03;6271067;28;20053;-70
2022/11/04 10:48:07;;;;;;;4.82;2.25;;;;;;;11.36;100.00;100318.06;6271204;28;20496;-68
2022/11/04 10:51:09;;;;;;;3.38;2.15;;;;;;;11.31;100.00;100320.13;6271921;28;20052;-68
2022/11/04 10:54:11;;;;;;;3.38;2.45;;;;;;;11.29;100.00;100326.44;6271338;28;20053;-69
2022/11/04 10:57:18;;;;;;;3.63;2.13;;;;;;;11.26;99.99;100335.34;6271717;28;20512;-70
2022/11/04 11:00:36;;;;;;;2.63;2.20;;;;;;;11.27;100.00;100341.47;6271780;28;20048;-69
2022/11/04 11:03:37;;;;;;;3.08;2.15;;;;;;;11.32;98.57;100352.56;6271684;28;20045;-68
2022/11/04 11:06:39;;;;;;;4.32;2.40;;;;;;;11.26;98.82;100345.88;6270989;28;20390;-68
2022/11/04 11:09:51;;;;;;;3.25;2.30;;;;;;;11.26;99.71;100347.66;6271311;28;20049;-70
2022/11/04 11:12:56;;;;;;;4.28;2.35;;;;;;;11.26;98.93;100363.44;6271480;28;20045;-70
2022/11/04 11:16:07;;;;;;;4.22;2.40;;;;;;;11.31;99.71;100358.72;6271238;28;20496;-69
2022/11/04 11:19:18;;;;;;;3.13;2.15;;;;;;;11.34;100.00;100367.28;6271625;28;20056;-69
2022/11/04 11:22:34;;;;;;;4.63;1.90;;;;;;;11.35;100.00;100376.84;6270972;28;20401;-69
2022/11/04 11:25:38;;;;;;;3.42;2.13;;;;;;;11.37;100.00;100377.63;6271361;28;20060;-69
2022/11/04 11:28:41;;;;;;;6.93;2.28;;;;;;;11.42;100.00;100374.69;6271472;28;20053;-69
2022/11/04 11:31:44;;;;;;;3.05;1.75;;;;;;;11.37;98.62;100367.09;6271029;28;20052;-70
2022/11/04 11:34:47;;;;;;;3.90;1.85;;;;;;;11.38;99.98;100362.69;6269992;28;20203;-70
2022/11/04 11:37:49;;;;;;;3.15;1.75;;;;;;;11.44;97.69;100367.53;6269459;28;20048;-69
2022/11/04 11:40:53;;;;;;;5.55;1.67;;;;;;;11.81;96.93;100366.06;6269974;28;20044;-70
2022/11/04 11:43:56;;;;;;;2.55;1.95;;;;;;;12.21;94.13;100365.25;6269016;23;20092;-69
2022/11/04 11:47:01;;;;;;;3.80;1.98;;;;;;;12.38;93.93;100363.19;6249984;28;20049;-70
2022/11/04 11:50:15;;;;;;;2.67;1.67;;;;;;;12.54;93.30;100364.81;6270779;28;20052;-69
2022/11/04 11:53:19;;;;;;;2.53;1.90;;;;;;;12.54;92.33;100372.72;6270505;28;20052;-70
2022/11/04 11:56:28;;;;;;;3.95;1.77;;;;;;;12.55;91.58;100374.41;6272809;28;20428;-70
2022/11/04 11:59:38;;;;;;;4.28;2.00;;;;;;;12.59;92.39;100368.81;6275839;28;20688;-69
2022/11/04 12:02:51;;;;;;;6.28;2.13;;;;;;;12.65;90.59;100365.75;6275970;28;20155;-69
2022/11/04 12:06:06;;;;;;;3.10;1.95;;;;;;;12.72;91.16;100360.94;6275228;28;20481;-70
2022/11/04 12:09:26;;;;;;;2.95;1.75;;;;;;;12.65;88.66;100357.84;6276073;28;20060;-69
2022/11/04 12:12:45;;;;;;;2.10;1.67;;;;;;;12.63;90.57;100362.41;6275294;28;20342;-70
2022/11/04 12:16:08;;;;;;;5.05;1.75;;;;;;;12.92;87.82;100352.47;6275317;28;20041;-69
2022/11/04 12:19:25;;;;;;;3.22;1.92;;;;;;;12.92;87.10;100349.84;6275706;28;20447;-69
2022/11/04 12:22:39;;;;;;;7.55;1.75;;;;;;;12.96;88.05;100350.47;6275127;28;20053;-68
2022/11/04 12:25:59;;;;;;;2.72;1.63;;;;;;;13.06;86.31;100348.03;6275114;28;20519;-70
2022/11/04 12:29:26;;;;;;;4.30;2.13;;;;;;;13.16;85.19;100349.91;6275882;28;20055;-70
2022/11/04 12:32:35;;;;;;;3.63;2.17;;;;;;;12.97;86.29;100353.94;6275124;28;20077;-71
2022/11/04 12:35:54;;;;;;;2.88;1.50;;;;;;;12.82;88.07;100358.50;6275105;28;20045;-70
2022/11/04 12:39:11;;;;;;;5.07;2.17;;;;;;;12.71;88.96;100377.69;6275310;28;20075;-70
2022/11/04 12:42:22;;;;;;;5.70;1.85;;;;;;;12.69;87.01;100369.03;6274842;28;20504;-70
2022/11/04 12:45:34;;;;;;;3.13;2.10;;;;;;;12.88;86.39;100377.38;6274646;28;20421;-69
2022/11/04 12:49:03;;;;;;;3.30;1.80;;;;;;;12.99;85.36;100376.66;6275179;28;20397;-69
2022/11/04 12:52:18;;;;;;;2.53;1.73;;;;;;;12.67;86.46;100386.75;6274514;28;20421;-70
2022/11/04 12:55:32;;;;;;;2.42;1.42;;;;;;;12.61;88.35;100387.16;6274508;28;20435;-70
2022/11/04 12:58:50;;;;;;;2.17;1.55;;;;;;;12.62;88.95;100379.13;6274950;28;20497;-69
2022/11/04 13:01:55;;;;;;;2.95;1.77;;;;;;;12.84;88.04;100389.06;6274657;28;20049;-68
2022/11/04 13:05:03;;;;;;;3.78;2.03;;;;;;;13.06;87.34;100377.88;6274038;28;20040;-70
2022/11/04 13:08:14;;;;;;;2.53;1.45;;;;;;;13.21;86.88;100379.44;6273683;28;20049;-69
2022/11/04 13:11:24;;;;;;;3.40;1.70;;;;;;;13.31;85.93;100384.97;6274348;28;20064;-70
2022/11/04 13:14:29;;;;;;;4.82;1.85;;;;;;;13.39;85.66;100393.19;6273959;28;20079;-69
2022/11/04 13:17:34;;;;;;;6.65;2.15;;;;;;;13.44;84.79;100395.50;6274603;28;20045;-70
2022/11/04 13:20:42;;;;;;;2.90;2.08;;;;;;;13.34;84.58;100395.31;6274024;28;20045;-70
2022/11/04 13:23:51;;;;;;;2.72;2.20;;;;;;;13.29;85.54;100391.31;6273853;28;20048;-70
2022/11/04 13:26:53;;;;;;;4.70;1.38;;;;;;;13.27;87.12;100391.44;6274382;28;20485;-69
2022/11/04 13:30:06;;;;;;;2.47;1.70;;;;;;;13.51;85.00;100407.31;6274061;28;20091;-70
2022/11/04 13:33:17;;;;;;;4.95;2.20;;;;;;;13.56;83.64;100405.19;6273848;28;20045;-70
2022/11/04 13:36:28;;;;;;;4.03;1.90;;;;;;;13.51;84.83;100411.75;6274012;28;20070;-69
2022/11/04 13:39:36;;;;;;;3.53;1.70;;;;;;;13.26;84.62;100415.25;6273641;28;20049;-70
2022/11/04 13:43:38;;;;;;;2.45;1.65;;;;;;;13.12;85.97;100416.19;6273701;28;20049;-70
2022/11/04 13:46:40;;;;;;;3.10;1.75;;;;;;;13.04;87.40;100429.09;6148728;28;20055;-70
2022/11/04 13:49:41;;;;;;;3.28;1.52;;;;;;;13.01;87.86;100434.56;6158816;28;20051;-70
2022/11/04 13:52:49;;;;;;;2.40;1.73;;;;;;;12.93;88.09;100437.72;6273557;28;20501;-69
2022/11/04 13:55:52;;;;;;;1.85;1.58;;;;;;;12.85;88.32;100432.97;6272974;28;20519;-70
2022/11/04 13:58:56;;;;;;;4.25;2.15;;;;;;;12.73;86.95;100441.72;6273802;28;20060;-70
2022/11/04 14:02:38;;;;;;;3.08;2.10;;;;;;;12.62;87.19;100434.50;6251681;28;20504;-70
2022/11/04 14:06:02;;;;;;;4.20;2.00;;;;;;;12.62;87.80;100438.94;6248252;28;20535;-69
2022/11/04 14:09:38;;;;;;;1.85;1.40;;;;;;;12.53;88.51;100450.94;6248615;28;20052;-70
2022/11/04 14:12:41;;;;;;;5.05;1.20;;;;;;;12.51;89.52;100455.47;6211660;28;20091;-69
2022/11/04 14:16:00;;;;;;;3.95;1.98;;;;;;;12.51;89.48;100455.47;6247979;28;20045;-69
2022/11/04 14:19:56;;;;;;;4.50;2.03;;;;;;;12.52;90.23;100448.41;6247173;28;20059;-69
2022/11/04 14:22:59;;;;;;;3.75;2.00;;;;;;;12.55;89.83;100454.31;6269150;28;20049;-69
2022/11/04 14:26:03;;;;;;;4.90;1.70;;;;;;;12.62;88.28;100465.28;6272459;28;20084;-70
2022/11/04 14:29:09;;;;;;;2.17;1.50;;;;;;;12.54;88.32;100467.63;6272639;28;20045;-70
2022/11/04 14:32:12;;;;;;;3.03;1.48;;;;;;;12.51;88.88;100473.09;6269591;28;20055;-70
2022/11/04 14:35:18;;;;;;;4.20;2.10;;;;;;;12.59;89.94;100478.69;6271078;28;20041;-65
2022/11/04 14:38:27;;;;;;;3.05;1.88;;;;;;;12.61;90.93;100485.53;6272378;28;20049;-69
2022/11/04 14:41:54;;;;;;;2.22;1.60;;;;;;;12.62;89.50;100487.22;6272342;28;20053;-69
2022/11/04 14:44:57;;;;;;;3.08;1.80;;;;;;;12.62;90.44;100495.13;6265627;28;20052;-69
2022/11/04 14:48:08;;;;;;;2.58;1.35;;;;;;;12.65;90.63;100500.22;6272440;28;20052;-69
2022/11/04 14:51:23;;;;;;;2.15;1.67;;;;;;;12.52;88.50;100504.59;6272228;28;20052;-70